sensor_id;sensor_type;location;lat;lon;timestamp;temperature;humidity
16154;DHT22;8182;55.648;13.208;2024-02-23T00:00:42;7.80;1.00
16154;DHT22;8182;55.648;13.208;2024-02-23T00:03:09;7.90;1.00
16154;DHT22;8182;55.648;13.208;2024-02-23T00:05:36;7.90;99.90
16154;DHT22;8182;55.648;13.208;2024-02-23T00:08:03;7.90;99.90
16154;DHT22;8182;55.648;13.208;2024-02-23T00:10:30;7.90;99.90
16154;DHT22;8182;55.648;13.208;2024-02-23T00:12:58;7.80;1.00
16154;DHT22;8182;55.648;13.208;2024-02-23T00:15:26;7.80;1.00
16154;DHT22;8182;55.648;13.208;2024-02-23T00:17:53;7.80;99.90
16154;DHT22;8182;55.648;13.208;2024-02-23T00:20:20;7.80;99.90
16154;DHT22;8182;55.648;13.208;2024-02-23T00:22:47;7.80;99.90
16154;DHT22;8182;55.648;13.208;2024-02-23T00:25:14;7.80;99.90
16154;DHT22;8182;55.648;13.208;2024-02-23T00:27:40;7.80;99.90
16154;DHT22;8182;55.648;13.208;2024-02-23T00:30:11;7.80;99.90
16154;DHT22;8182;55.648;13.208;2024-02-23T00:32:41;7.80;99.90
16154;DHT22;8182;55.648;13.208;2024-02-23T00:35:11;7.90;99.90
16154;DHT22;8182;55.648;13.208;2024-02-23T00:37:48;8.00;99.90
16154;DHT22;8182;55.648;13.208;2024-02-23T00:40:15;8.00;99.90
16154;DHT22;8182;55.648;13.208;2024-02-23T00:42:42;8.00;99.90
16154;DHT22;8182;55.648;13.208;2024-02-23T00:45:11;8.00;99.90
16154;DHT22;8182;55.648;13.208;2024-02-23T00:47:44;8.00;99.90
16154;DHT22;8182;55.648;13.208;2024-02-23T00:50:15;8.10;99.90
16154;DHT22;8182;55.648;13.208;2024-02-23T00:52:45;8.20;99.90
16154;DHT22;8182;55.648;13.208;2024-02-23T00:55:14;8.20;99.90
16154;DHT22;8182;55.648;13.208;2024-02-23T00:57:41;8.20;99.90
16154;DHT22;8182;55.648;13.208;2024-02-23T01:00:11;8.30;99.90
16154;DHT22;8182;55.648;13.208;2024-02-23T01:02:41;8.20;99.90
16154;DHT22;8182;55.648;13.208;2024-02-23T01:05:09;8.30;99.90
16154;DHT22;8182;55.648;13.208;2024-02-23T01:07:36;8.30;99.90
16154;DHT22;8182;55.648;13.208;2024-02-23T01:10:04;8.30;99.90
16154;DHT22;8182;55.648;13.208;2024-02-23T01:12:31;8.30;99.90
16154;DHT22;8182;55.648;13.208;2024-02-23T01:14:58;8.30;99.90
16154;DHT22;8182;55.648;13.208;2024-02-23T01:17:26;8.30;99.90
16154;DHT22;8182;55.648;13.208;2024-02-23T01:19:53;8.40;99.90
16154;DHT22;8182;55.648;13.208;2024-02-23T01:22:20;8.40;99.90
16154;DHT22;8182;55.648;13.208;2024-02-23T01:24:47;8.50;99.90
16154;DHT22;8182;55.648;13.208;2024-02-23T01:27:13;8.50;99.90
16154;DHT22;8182;55.648;13.208;2024-02-23T01:29:40;8.50;99.90
16154;DHT22;8182;55.648;13.208;2024-02-23T01:32:07;8.50;99.90
16154;DHT22;8182;55.648;13.208;2024-02-23T01:34:35;8.50;99.90
16154;DHT22;8182;55.648;13.208;2024-02-23T01:37:02;8.50;99.90
16154;DHT22;8182;55.648;13.208;2024-02-23T01:39:29;8.60;99.90
16154;DHT22;8182;55.648;13.208;2024-02-23T01:42:01;8.60;99.90
16154;DHT22;8182;55.648;13.208;2024-02-23T01:44:31;8.70;99.90
16154;DHT22;8182;55.648;13.208;2024-02-23T01:46:58;8.80;99.90
16154;DHT22;8182;55.648;13.208;2024-02-23T01:49:25;8.80;99.90
16154;DHT22;8182;55.648;13.208;2024-02-23T01:51:57;8.80;99.90
16154;DHT22;8182;55.648;13.208;2024-02-23T01:54:24;8.90;99.90
16154;DHT22;8182;55.648;13.208;2024-02-23T01:56:51;8.90;99.90
16154;DHT22;8182;55.648;13.208;2024-02-23T01:59:19;8.90;99.90
16154;DHT22;8182;55.648;13.208;2024-02-23T02:01:46;8.90;99.90
16154;DHT22;8182;55.648;13.208;2024-02-23T02:04:13;8.90;99.90
16154;DHT22;8182;55.648;13.208;2024-02-23T02:06:40;9.00;99.90
16154;DHT22;8182;55.648;13.208;2024-02-23T02:09:11;8.90;99.90
16154;DHT22;8182;55.648;13.208;2024-02-23T02:11:45;8.90;99.90
16154;DHT22;8182;55.648;13.208;2024-02-23T02:14:15;8.80;99.90
16154;DHT22;8182;55.648;13.208;2024-02-23T02:16:45;8.90;99.90
16154;DHT22;8182;55.648;13.208;2024-02-23T02:19:13;8.80;99.90
16154;DHT22;8182;55.648;13.208;2024-02-23T02:21:41;8.80;99.90
16154;DHT22;8182;55.648;13.208;2024-02-23T02:24:08;8.80;99.90
16154;DHT22;8182;55.648;13.208;2024-02-23T02:26:37;8.80;99.90
16154;DHT22;8182;55.648;13.208;2024-02-23T02:29:04;8.90;99.90
16154;DHT22;8182;55.648;13.208;2024-02-23T02:31:30;8.70;99.90
16154;DHT22;8182;55.648;13.208;2024-02-23T02:34:03;8.60;99.90
16154;DHT22;8182;55.648;13.208;2024-02-23T02:36:29;8.40;99.90
16154;DHT22;8182;55.648;13.208;2024-02-23T02:38:56;8.30;99.90
16154;DHT22;8182;55.648;13.208;2024-02-23T02:41:24;8.20;99.90
16154;DHT22;8182;55.648;13.208;2024-02-23T02:43:55;8.10;99.90
16154;DHT22;8182;55.648;13.208;2024-02-23T02:46:25;8.00;99.90
16154;DHT22;8182;55.648;13.208;2024-02-23T02:48:52;7.90;99.90
16154;DHT22;8182;55.648;13.208;2024-02-23T02:51:19;7.70;99.90
16154;DHT22;8182;55.648;13.208;2024-02-23T02:53:46;7.60;99.90
16154;DHT22;8182;55.648;13.208;2024-02-23T02:56:13;7.30;99.90
16154;DHT22;8182;55.648;13.208;2024-02-23T02:58:39;7.30;99.90
16154;DHT22;8182;55.648;13.208;2024-02-23T03:01:08;7.20;99.90
16154;DHT22;8182;55.648;13.208;2024-02-23T03:03:35;7.10;99.90
16154;DHT22;8182;55.648;13.208;2024-02-23T03:06:02;7.10;99.90
16154;DHT22;8182;55.648;13.208;2024-02-23T03:08:28;7.10;99.90
16154;DHT22;8182;55.648;13.208;2024-02-23T03:10:55;7.10;99.90
16154;DHT22;8182;55.648;13.208;2024-02-23T03:13:22;7.00;99.90
16154;DHT22;8182;55.648;13.208;2024-02-23T03:15:49;7.00;99.90
16154;DHT22;8182;55.648;13.208;2024-02-23T03:18:17;7.00;99.90
16154;DHT22;8182;55.648;13.208;2024-02-23T03:20:44;6.90;99.90
16154;DHT22;8182;55.648;13.208;2024-02-23T03:23:11;6.90;99.90
16154;DHT22;8182;55.648;13.208;2024-02-23T03:25:38;6.80;99.90
16154;DHT22;8182;55.648;13.208;2024-02-23T03:28:08;6.80;99.90
16154;DHT22;8182;55.648;13.208;2024-02-23T03:30:35;6.90;99.90
16154;DHT22;8182;55.648;13.208;2024-02-23T03:33:02;6.80;99.90
16154;DHT22;8182;55.648;13.208;2024-02-23T03:35:30;6.80;99.90
16154;DHT22;8182;55.648;13.208;2024-02-23T03:37:57;6.80;99.90
16154;DHT22;8182;55.648;13.208;2024-02-23T03:40:24;6.80;99.90
16154;DHT22;8182;55.648;13.208;2024-02-23T03:42:51;6.90;99.90
16154;DHT22;8182;55.648;13.208;2024-02-23T03:45:18;6.70;99.90
16154;DHT22;8182;55.648;13.208;2024-02-23T03:47:45;6.50;99.90
16154;DHT22;8182;55.648;13.208;2024-02-23T03:50:12;6.40;99.90
16154;DHT22;8182;55.648;13.208;2024-02-23T03:52:41;6.20;99.90
16154;DHT22;8182;55.648;13.208;2024-02-23T03:55:10;6.20;99.90
16154;DHT22;8182;55.648;13.208;2024-02-23T03:57:37;6.10;99.90
16154;DHT22;8182;55.648;13.208;2024-02-23T04:00:05;6.00;99.90
16154;DHT22;8182;55.648;13.208;2024-02-23T04:02:33;6.10;99.90
16154;DHT22;8182;55.648;13.208;2024-02-23T04:05:00;6.00;99.90
16154;DHT22;8182;55.648;13.208;2024-02-23T04:07:27;6.00;99.90
16154;DHT22;8182;55.648;13.208;2024-02-23T04:09:56;5.90;99.90
16154;DHT22;8182;55.648;13.208;2024-02-23T04:12:23;5.90;99.90
16154;DHT22;8182;55.648;13.208;2024-02-23T04:14:50;5.80;99.90
16154;DHT22;8182;55.648;13.208;2024-02-23T04:17:17;5.60;99.90
16154;DHT22;8182;55.648;13.208;2024-02-23T04:19:44;5.60;99.90
16154;DHT22;8182;55.648;13.208;2024-02-23T04:22:11;5.60;99.90
16154;DHT22;8182;55.648;13.208;2024-02-23T04:24:39;5.50;99.90
16154;DHT22;8182;55.648;13.208;2024-02-23T04:27:07;5.50;99.90
16154;DHT22;8182;55.648;13.208;2024-02-23T04:29:35;5.50;99.90
16154;DHT22;8182;55.648;13.208;2024-02-23T04:32:02;5.70;99.90
16154;DHT22;8182;55.648;13.208;2024-02-23T04:34:29;5.60;99.90
16154;DHT22;8182;55.648;13.208;2024-02-23T04:36:56;5.50;99.90
16154;DHT22;8182;55.648;13.208;2024-02-23T04:39:23;5.50;99.90
16154;DHT22;8182;55.648;13.208;2024-02-23T04:41:50;5.50;99.90
16154;DHT22;8182;55.648;13.208;2024-02-23T04:44:18;5.70;99.90
16154;DHT22;8182;55.648;13.208;2024-02-23T04:46:45;5.70;99.90
16154;DHT22;8182;55.648;13.208;2024-02-23T04:49:12;5.70;99.90
16154;DHT22;8182;55.648;13.208;2024-02-23T04:51:39;5.70;99.90
16154;DHT22;8182;55.648;13.208;2024-02-23T04:54:09;5.60;99.90
16154;DHT22;8182;55.648;13.208;2024-02-23T04:56:36;5.70;99.90
16154;DHT22;8182;55.648;13.208;2024-02-23T04:59:03;5.70;99.90
16154;DHT22;8182;55.648;13.208;2024-02-23T05:01:35;5.60;99.90
16154;DHT22;8182;55.648;13.208;2024-02-23T05:04:02;5.60;99.90
16154;DHT22;8182;55.648;13.208;2024-02-23T05:06:30;5.70;99.90
16154;DHT22;8182;55.648;13.208;2024-02-23T05:08:56;5.80;99.90
16154;DHT22;8182;55.648;13.208;2024-02-23T05:11:23;5.70;99.90
16154;DHT22;8182;55.648;13.208;2024-02-23T05:13:50;5.70;99.90
16154;DHT22;8182;55.648;13.208;2024-02-23T05:16:17;5.70;99.90
16154;DHT22;8182;55.648;13.208;2024-02-23T05:18:45;5.60;99.90
16154;DHT22;8182;55.648;13.208;2024-02-23T05:21:15;5.40;99.90
16154;DHT22;8182;55.648;13.208;2024-02-23T05:23:43;5.30;99.90
16154;DHT22;8182;55.648;13.208;2024-02-23T05:26:11;5.30;99.90
16154;DHT22;8182;55.648;13.208;2024-02-23T05:28:45;5.30;99.90
16154;DHT22;8182;55.648;13.208;2024-02-23T05:31:11;5.30;99.90
16154;DHT22;8182;55.648;13.208;2024-02-23T05:33:38;5.20;99.90
16154;DHT22;8182;55.648;13.208;2024-02-23T05:36:08;5.30;99.90
16154;DHT22;8182;55.648;13.208;2024-02-23T05:38:35;5.20;99.90
16154;DHT22;8182;55.648;13.208;2024-02-23T05:41:02;5.10;99.90
16154;DHT22;8182;55.648;13.208;2024-02-23T05:43:30;5.00;99.90
16154;DHT22;8182;55.648;13.208;2024-02-23T05:45:57;5.00;99.90
16154;DHT22;8182;55.648;13.208;2024-02-23T05:48:24;5.00;99.90
16154;DHT22;8182;55.648;13.208;2024-02-23T05:50:51;4.90;99.90
16154;DHT22;8182;55.648;13.208;2024-02-23T05:53:19;5.00;99.90
16154;DHT22;8182;55.648;13.208;2024-02-23T05:55:46;5.00;99.90
16154;DHT22;8182;55.648;13.208;2024-02-23T05:58:13;5.00;99.90
16154;DHT22;8182;55.648;13.208;2024-02-23T06:00:45;5.00;99.90
16154;DHT22;8182;55.648;13.208;2024-02-23T06:03:15;5.00;99.90
16154;DHT22;8182;55.648;13.208;2024-02-23T06:05:46;5.00;99.90
16154;DHT22;8182;55.648;13.208;2024-02-23T06:08:16;5.00;99.90
16154;DHT22;8182;55.648;13.208;2024-02-23T06:10:47;4.90;99.90
16154;DHT22;8182;55.648;13.208;2024-02-23T06:13:14;4.90;99.90
16154;DHT22;8182;55.648;13.208;2024-02-23T06:15:44;4.90;99.90
16154;DHT22;8182;55.648;13.208;2024-02-23T06:18:14;4.90;99.90
16154;DHT22;8182;55.648;13.208;2024-02-23T06:20:47;4.90;99.90
16154;DHT22;8182;55.648;13.208;2024-02-23T06:23:15;5.10;99.90
16154;DHT22;8182;55.648;13.208;2024-02-23T06:25:50;5.00;99.90
16154;DHT22;8182;55.648;13.208;2024-02-23T06:28:17;5.00;99.90
16154;DHT22;8182;55.648;13.208;2024-02-23T06:30:44;5.00;99.90
16154;DHT22;8182;55.648;13.208;2024-02-23T06:33:11;4.90;99.90
16154;DHT22;8182;55.648;13.208;2024-02-23T06:35:38;4.90;99.90
16154;DHT22;8182;55.648;13.208;2024-02-23T06:38:05;5.00;99.90
16154;DHT22;8182;55.648;13.208;2024-02-23T06:40:32;5.00;99.90
16154;DHT22;8182;55.648;13.208;2024-02-23T06:43:00;5.00;99.90
16154;DHT22;8182;55.648;13.208;2024-02-23T06:45:27;5.00;99.90
16154;DHT22;8182;55.648;13.208;2024-02-23T06:47:54;5.00;99.90
16154;DHT22;8182;55.648;13.208;2024-02-23T06:50:21;5.10;99.90
16154;DHT22;8182;55.648;13.208;2024-02-23T06:52:48;5.10;99.90
16154;DHT22;8182;55.648;13.208;2024-02-23T06:55:15;5.10;99.90
16154;DHT22;8182;55.648;13.208;2024-02-23T06:57:45;5.10;99.90
16154;DHT22;8182;55.648;13.208;2024-02-23T07:00:17;5.20;99.90
16154;DHT22;8182;55.648;13.208;2024-02-23T07:02:44;5.30;99.90
16154;DHT22;8182;55.648;13.208;2024-02-23T07:05:10;5.30;99.90
16154;DHT22;8182;55.648;13.208;2024-02-23T07:07:40;5.60;99.90
16154;DHT22;8182;55.648;13.208;2024-02-23T07:10:07;5.50;99.90
16154;DHT22;8182;55.648;13.208;2024-02-23T07:12:36;5.30;99.90
16154;DHT22;8182;55.648;13.208;2024-02-23T07:15:03;5.20;99.90
16154;DHT22;8182;55.648;13.208;2024-02-23T07:17:31;5.10;99.90
16154;DHT22;8182;55.648;13.208;2024-02-23T07:19:58;5.10;99.90
16154;DHT22;8182;55.648;13.208;2024-02-23T07:22:31;5.30;99.90
16154;DHT22;8182;55.648;13.208;2024-02-23T07:24:58;5.20;99.90
16154;DHT22;8182;55.648;13.208;2024-02-23T07:27:27;5.50;99.90
16154;DHT22;8182;55.648;13.208;2024-02-23T07:29:53;5.40;99.90
16154;DHT22;8182;55.648;13.208;2024-02-23T07:32:23;5.50;99.90
16154;DHT22;8182;55.648;13.208;2024-02-23T07:34:52;5.60;99.90
16154;DHT22;8182;55.648;13.208;2024-02-23T07:37:19;5.60;99.90
16154;DHT22;8182;55.648;13.208;2024-02-23T07:39:46;5.50;99.90
16154;DHT22;8182;55.648;13.208;2024-02-23T07:42:13;5.40;99.90
16154;DHT22;8182;55.648;13.208;2024-02-23T07:44:43;5.60;99.90
16154;DHT22;8182;55.648;13.208;2024-02-23T07:47:11;5.70;99.90
16154;DHT22;8182;55.648;13.208;2024-02-23T07:49:38;5.80;99.90
16154;DHT22;8182;55.648;13.208;2024-02-23T07:52:07;6.10;99.90
16154;DHT22;8182;55.648;13.208;2024-02-23T07:54:34;6.20;99.90
16154;DHT22;8182;55.648;13.208;2024-02-23T07:57:01;6.40;99.90
16154;DHT22;8182;55.648;13.208;2024-02-23T07:59:30;6.30;99.90
16154;DHT22;8182;55.648;13.208;2024-02-23T08:01:56;6.50;99.90
16154;DHT22;8182;55.648;13.208;2024-02-23T08:04:24;7.00;99.90
16154;DHT22;8182;55.648;13.208;2024-02-23T08:06:55;7.10;99.90
16154;DHT22;8182;55.648;13.208;2024-02-23T08:09:23;7.20;99.90
16154;DHT22;8182;55.648;13.208;2024-02-23T08:11:50;7.30;99.90
16154;DHT22;8182;55.648;13.208;2024-02-23T08:14:17;6.70;99.90
16154;DHT22;8182;55.648;13.208;2024-02-23T08:16:44;6.60;99.90
16154;DHT22;8182;55.648;13.208;2024-02-23T08:19:11;6.80;99.90
16154;DHT22;8182;55.648;13.208;2024-02-23T08:21:38;6.80;99.90
16154;DHT22;8182;55.648;13.208;2024-02-23T08:24:07;6.80;99.90
16154;DHT22;8182;55.648;13.208;2024-02-23T08:26:35;6.90;99.90
16154;DHT22;8182;55.648;13.208;2024-02-23T08:29:03;7.20;99.90
16154;DHT22;8182;55.648;13.208;2024-02-23T08:31:30;7.80;99.90
16154;DHT22;8182;55.648;13.208;2024-02-23T08:33:57;8.60;1.00
16154;DHT22;8182;55.648;13.208;2024-02-23T08:36:24;8.60;1.00
16154;DHT22;8182;55.648;13.208;2024-02-23T08:38:51;8.00;1.00
16154;DHT22;8182;55.648;13.208;2024-02-23T08:41:18;8.10;1.00
16154;DHT22;8182;55.648;13.208;2024-02-23T08:43:46;7.50;1.00
16154;DHT22;8182;55.648;13.208;2024-02-23T08:46:13;7.40;1.00
16154;DHT22;8182;55.648;13.208;2024-02-23T08:48:40;8.20;1.00
16154;DHT22;8182;55.648;13.208;2024-02-23T08:51:07;9.90;1.00
16154;DHT22;8182;55.648;13.208;2024-02-23T08:53:33;10.00;1.00
16154;DHT22;8182;55.648;13.208;2024-02-23T08:56:00;10.40;1.00
16154;DHT22;8182;55.648;13.208;2024-02-23T08:58:27;10.70;1.00
16154;DHT22;8182;55.648;13.208;2024-02-23T09:00:55;10.40;1.00
16154;DHT22;8182;55.648;13.208;2024-02-23T09:03:22;9.80;1.00
16154;DHT22;8182;55.648;13.208;2024-02-23T09:05:49;8.40;1.00
16154;DHT22;8182;55.648;13.208;2024-02-23T09:08:16;7.90;1.00
16154;DHT22;8182;55.648;13.208;2024-02-23T09:10:43;10.00;1.00
16154;DHT22;8182;55.648;13.208;2024-02-23T09:13:10;9.90;1.00
16154;DHT22;8182;55.648;13.208;2024-02-23T09:15:38;8.40;1.00
16154;DHT22;8182;55.648;13.208;2024-02-23T09:18:06;7.80;1.00
16154;DHT22;8182;55.648;13.208;2024-02-23T09:20:33;7.50;1.00
16154;DHT22;8182;55.648;13.208;2024-02-23T09:23:00;7.40;1.00
16154;DHT22;8182;55.648;13.208;2024-02-23T09:25:26;7.50;1.00
16154;DHT22;8182;55.648;13.208;2024-02-23T09:27:57;7.70;1.00
16154;DHT22;8182;55.648;13.208;2024-02-23T09:30:23;8.40;1.00
16154;DHT22;8182;55.648;13.208;2024-02-23T09:32:50;8.40;1.00
16154;DHT22;8182;55.648;13.208;2024-02-23T09:35:19;8.20;1.00
16154;DHT22;8182;55.648;13.208;2024-02-23T09:37:49;8.60;1.00
16154;DHT22;8182;55.648;13.208;2024-02-23T09:40:16;8.60;1.00
16154;DHT22;8182;55.648;13.208;2024-02-23T09:42:43;8.80;1.00
16154;DHT22;8182;55.648;13.208;2024-02-23T09:45:15;9.30;1.00
16154;DHT22;8182;55.648;13.208;2024-02-23T09:47:43;9.50;1.00
16154;DHT22;8182;55.648;13.208;2024-02-23T09:50:12;9.80;1.00
16154;DHT22;8182;55.648;13.208;2024-02-23T09:52:41;10.40;1.00
16154;DHT22;8182;55.648;13.208;2024-02-23T09:55:08;10.30;1.00
16154;DHT22;8182;55.648;13.208;2024-02-23T09:57:36;9.70;1.00
16154;DHT22;8182;55.648;13.208;2024-02-23T10:00:04;9.30;1.00
16154;DHT22;8182;55.648;13.208;2024-02-23T10:02:32;8.80;1.00
16154;DHT22;8182;55.648;13.208;2024-02-23T10:05:00;9.50;1.00
16154;DHT22;8182;55.648;13.208;2024-02-23T10:07:28;10.40;1.00
16154;DHT22;8182;55.648;13.208;2024-02-23T10:09:58;11.50;1.00
16154;DHT22;8182;55.648;13.208;2024-02-23T10:12:27;11.80;1.00
16154;DHT22;8182;55.648;13.208;2024-02-23T10:14:54;11.30;1.00
16154;DHT22;8182;55.648;13.208;2024-02-23T10:17:21;10.30;1.00
16154;DHT22;8182;55.648;13.208;2024-02-23T10:19:48;10.10;1.00
16154;DHT22;8182;55.648;13.208;2024-02-23T10:22:15;10.80;1.00
16154;DHT22;8182;55.648;13.208;2024-02-23T10:24:44;12.30;1.00
16154;DHT22;8182;55.648;13.208;2024-02-23T10:27:12;9.90;1.00
16154;DHT22;8182;55.648;13.208;2024-02-23T10:29:39;9.00;1.00
16154;DHT22;8182;55.648;13.208;2024-02-23T10:32:07;8.70;1.00
16154;DHT22;8182;55.648;13.208;2024-02-23T10:34:36;9.30;1.00
16154;DHT22;8182;55.648;13.208;2024-02-23T10:37:06;9.40;1.00
16154;DHT22;8182;55.648;13.208;2024-02-23T10:39:36;9.10;1.00
16154;DHT22;8182;55.648;13.208;2024-02-23T10:42:09;9.10;1.00
16154;DHT22;8182;55.648;13.208;2024-02-23T10:44:37;10.30;1.00
16154;DHT22;8182;55.648;13.208;2024-02-23T10:47:04;11.70;1.00
16154;DHT22;8182;55.648;13.208;2024-02-23T10:49:33;13.50;1.00
16154;DHT22;8182;55.648;13.208;2024-02-23T10:52:00;12.80;1.00
16154;DHT22;8182;55.648;13.208;2024-02-23T10:54:29;13.10;1.00
16154;DHT22;8182;55.648;13.208;2024-02-23T10:56:57;12.50;1.00
16154;DHT22;8182;55.648;13.208;2024-02-23T10:59:25;12.20;1.00
16154;DHT22;8182;55.648;13.208;2024-02-23T11:01:55;12.00;1.00
16154;DHT22;8182;55.648;13.208;2024-02-23T11:04:25;12.40;1.00
16154;DHT22;8182;55.648;13.208;2024-02-23T11:06:54;12.40;1.00
16154;DHT22;8182;55.648;13.208;2024-02-23T11:09:24;12.10;1.00
16154;DHT22;8182;55.648;13.208;2024-02-23T11:11:53;11.80;1.00
16154;DHT22;8182;55.648;13.208;2024-02-23T11:14:29;10.30;1.00
16154;DHT22;8182;55.648;13.208;2024-02-23T11:16:58;11.10;1.00
16154;DHT22;8182;55.648;13.208;2024-02-23T11:19:33;10.30;1.00
16154;DHT22;8182;55.648;13.208;2024-02-23T11:22:01;9.50;1.00
16154;DHT22;8182;55.648;13.208;2024-02-23T11:24:29;9.00;1.00
16154;DHT22;8182;55.648;13.208;2024-02-23T11:27:02;8.70;1.00
16154;DHT22;8182;55.648;13.208;2024-02-23T11:29:34;8.60;1.00
16154;DHT22;8182;55.648;13.208;2024-02-23T11:32:03;8.60;1.00
16154;DHT22;8182;55.648;13.208;2024-02-23T11:34:30;8.70;1.00
16154;DHT22;8182;55.648;13.208;2024-02-23T11:36:57;8.50;1.00
16154;DHT22;8182;55.648;13.208;2024-02-23T11:39:26;8.50;1.00
16154;DHT22;8182;55.648;13.208;2024-02-23T11:41:53;8.40;1.00
16154;DHT22;8182;55.648;13.208;2024-02-23T11:44:22;8.30;1.00
16154;DHT22;8182;55.648;13.208;2024-02-23T11:46:49;8.20;1.00
16154;DHT22;8182;55.648;13.208;2024-02-23T11:49:17;8.00;1.00
16154;DHT22;8182;55.648;13.208;2024-02-23T11:51:44;8.00;1.00
16154;DHT22;8182;55.648;13.208;2024-02-23T11:54:11;7.90;1.00
16154;DHT22;8182;55.648;13.208;2024-02-23T11:56:40;7.80;1.00
16154;DHT22;8182;55.648;13.208;2024-02-23T11:59:08;7.60;1.00
16154;DHT22;8182;55.648;13.208;2024-02-23T12:01:35;7.70;1.00
16154;DHT22;8182;55.648;13.208;2024-02-23T12:04:02;7.80;1.00
16154;DHT22;8182;55.648;13.208;2024-02-23T12:06:31;7.70;1.00
16154;DHT22;8182;55.648;13.208;2024-02-23T12:08:59;7.60;1.00
16154;DHT22;8182;55.648;13.208;2024-02-23T12:11:26;7.70;1.00
16154;DHT22;8182;55.648;13.208;2024-02-23T12:13:53;7.70;1.00
16154;DHT22;8182;55.648;13.208;2024-02-23T12:16:21;7.80;1.00
16154;DHT22;8182;55.648;13.208;2024-02-23T12:18:53;7.80;1.00
16154;DHT22;8182;55.648;13.208;2024-02-23T12:21:21;7.90;1.00
16154;DHT22;8182;55.648;13.208;2024-02-23T12:23:51;8.00;1.00
16154;DHT22;8182;55.648;13.208;2024-02-23T12:26:18;8.00;1.00
16154;DHT22;8182;55.648;13.208;2024-02-23T12:28:46;7.90;1.00
16154;DHT22;8182;55.648;13.208;2024-02-23T12:31:14;8.00;1.00
16154;DHT22;8182;55.648;13.208;2024-02-23T12:33:50;8.10;1.00
16154;DHT22;8182;55.648;13.208;2024-02-23T12:36:17;8.30;1.00
16154;DHT22;8182;55.648;13.208;2024-02-23T12:38:44;8.30;1.00
16154;DHT22;8182;55.648;13.208;2024-02-23T12:41:12;8.40;1.00
16154;DHT22;8182;55.648;13.208;2024-02-23T12:43:39;8.40;1.00
16154;DHT22;8182;55.648;13.208;2024-02-23T12:46:06;8.60;1.00
16154;DHT22;8182;55.648;13.208;2024-02-23T12:48:34;8.80;1.00
16154;DHT22;8182;55.648;13.208;2024-02-23T12:51:01;8.70;1.00
16154;DHT22;8182;55.648;13.208;2024-02-23T12:53:33;8.80;1.00
16154;DHT22;8182;55.648;13.208;2024-02-23T12:56:02;8.80;1.00
16154;DHT22;8182;55.648;13.208;2024-02-23T12:58:30;8.80;1.00
16154;DHT22;8182;55.648;13.208;2024-02-23T13:01:00;8.50;1.00
16154;DHT22;8182;55.648;13.208;2024-02-23T13:03:27;8.50;1.00
16154;DHT22;8182;55.648;13.208;2024-02-23T13:05:54;8.60;1.00
16154;DHT22;8182;55.648;13.208;2024-02-23T13:08:21;8.60;1.00
16154;DHT22;8182;55.648;13.208;2024-02-23T13:10:48;8.50;1.00
16154;DHT22;8182;55.648;13.208;2024-02-23T13:13:15;8.30;1.00
16154;DHT22;8182;55.648;13.208;2024-02-23T13:15:44;8.50;1.00
16154;DHT22;8182;55.648;13.208;2024-02-23T13:18:18;8.40;1.00
16154;DHT22;8182;55.648;13.208;2024-02-23T13:20:46;8.30;1.00
16154;DHT22;8182;55.648;13.208;2024-02-23T13:23:13;8.40;1.00
16154;DHT22;8182;55.648;13.208;2024-02-23T13:25:41;8.30;1.00
16154;DHT22;8182;55.648;13.208;2024-02-23T13:28:15;8.20;1.00
16154;DHT22;8182;55.648;13.208;2024-02-23T13:30:46;8.30;1.00
16154;DHT22;8182;55.648;13.208;2024-02-23T13:33:13;8.20;1.00
16154;DHT22;8182;55.648;13.208;2024-02-23T13:35:41;8.10;1.00
16154;DHT22;8182;55.648;13.208;2024-02-23T13:38:09;8.20;1.00
16154;DHT22;8182;55.648;13.208;2024-02-23T13:40:36;8.10;1.00
16154;DHT22;8182;55.648;13.208;2024-02-23T13:43:03;8.00;1.00
16154;DHT22;8182;55.648;13.208;2024-02-23T13:45:30;8.00;1.00
16154;DHT22;8182;55.648;13.208;2024-02-23T13:48:00;8.20;1.00
16154;DHT22;8182;55.648;13.208;2024-02-23T13:50:27;8.00;1.00
16154;DHT22;8182;55.648;13.208;2024-02-23T13:52:55;8.00;1.00
16154;DHT22;8182;55.648;13.208;2024-02-23T13:55:22;8.10;1.00
16154;DHT22;8182;55.648;13.208;2024-02-23T13:57:49;8.00;1.00
16154;DHT22;8182;55.648;13.208;2024-02-23T14:00:16;8.00;1.00
16154;DHT22;8182;55.648;13.208;2024-02-23T14:02:44;8.00;1.00
16154;DHT22;8182;55.648;13.208;2024-02-23T14:05:14;8.00;1.00
16154;DHT22;8182;55.648;13.208;2024-02-23T14:07:49;8.10;1.00
16154;DHT22;8182;55.648;13.208;2024-02-23T14:10:16;8.20;1.00
16154;DHT22;8182;55.648;13.208;2024-02-23T14:12:45;8.00;1.00
16154;DHT22;8182;55.648;13.208;2024-02-23T14:15:14;8.00;1.00
16154;DHT22;8182;55.648;13.208;2024-02-23T14:17:42;8.00;1.00
16154;DHT22;8182;55.648;13.208;2024-02-23T14:20:11;8.10;1.00
16154;DHT22;8182;55.648;13.208;2024-02-23T14:22:38;7.90;1.00
16154;DHT22;8182;55.648;13.208;2024-02-23T14:25:06;8.00;1.00
16154;DHT22;8182;55.648;13.208;2024-02-23T14:27:33;8.20;1.00
16154;DHT22;8182;55.648;13.208;2024-02-23T14:30:00;8.10;1.00
16154;DHT22;8182;55.648;13.208;2024-02-23T14:32:27;8.20;1.00
16154;DHT22;8182;55.648;13.208;2024-02-23T14:34:54;8.30;1.00
16154;DHT22;8182;55.648;13.208;2024-02-23T14:37:24;8.30;1.00
16154;DHT22;8182;55.648;13.208;2024-02-23T14:39:51;8.00;1.00
16154;DHT22;8182;55.648;13.208;2024-02-23T14:42:18;8.20;1.00
16154;DHT22;8182;55.648;13.208;2024-02-23T14:44:45;8.00;1.00
16154;DHT22;8182;55.648;13.208;2024-02-23T14:47:12;7.90;1.00
16154;DHT22;8182;55.648;13.208;2024-02-23T14:49:39;8.10;1.00
16154;DHT22;8182;55.648;13.208;2024-02-23T14:52:06;8.10;1.00
16154;DHT22;8182;55.648;13.208;2024-02-23T14:54:34;8.00;1.00
16154;DHT22;8182;55.648;13.208;2024-02-23T14:57:02;7.90;1.00
16154;DHT22;8182;55.648;13.208;2024-02-23T14:59:29;7.90;1.00
16154;DHT22;8182;55.648;13.208;2024-02-23T15:01:56;7.70;1.00
16154;DHT22;8182;55.648;13.208;2024-02-23T15:04:23;7.80;1.00
16154;DHT22;8182;55.648;13.208;2024-02-23T15:06:50;7.70;1.00
16154;DHT22;8182;55.648;13.208;2024-02-23T15:09:17;7.70;1.00
16154;DHT22;8182;55.648;13.208;2024-02-23T15:11:46;7.50;1.00
16154;DHT22;8182;55.648;13.208;2024-02-23T15:14:13;7.70;1.00
16154;DHT22;8182;55.648;13.208;2024-02-23T15:16:40;7.40;1.00
16154;DHT22;8182;55.648;13.208;2024-02-23T15:19:09;7.50;1.00
16154;DHT22;8182;55.648;13.208;2024-02-23T15:21:37;7.50;1.00
16154;DHT22;8182;55.648;13.208;2024-02-23T15:24:06;7.50;1.00
16154;DHT22;8182;55.648;13.208;2024-02-23T15:26:33;7.40;1.00
16154;DHT22;8182;55.648;13.208;2024-02-23T15:29:01;7.40;1.00
16154;DHT22;8182;55.648;13.208;2024-02-23T15:31:29;7.30;1.00
16154;DHT22;8182;55.648;13.208;2024-02-23T15:33:56;7.30;1.00
16154;DHT22;8182;55.648;13.208;2024-02-23T15:36:25;7.20;1.00
16154;DHT22;8182;55.648;13.208;2024-02-23T15:38:52;7.20;1.00
16154;DHT22;8182;55.648;13.208;2024-02-23T15:41:23;7.10;1.00
16154;DHT22;8182;55.648;13.208;2024-02-23T15:43:50;7.10;1.00
16154;DHT22;8182;55.648;13.208;2024-02-23T15:46:18;7.00;1.00
16154;DHT22;8182;55.648;13.208;2024-02-23T15:48:45;7.00;1.00
16154;DHT22;8182;55.648;13.208;2024-02-23T15:51:15;6.90;1.00
16154;DHT22;8182;55.648;13.208;2024-02-23T15:53:42;6.90;1.00
16154;DHT22;8182;55.648;13.208;2024-02-23T15:56:09;6.80;1.00